METAR Data
IDs: Format: Raw Decoded Include TAF

Data at: 0044 UTC 19 Nov 2018

PASA 190040Z AUTO 36011KT 10SM -RA BKN010 OVC018 01/00 A2950 RMK AO2 UPB19E23 CIG 007V014 P0000 FZRANO $
PASA 182356Z AUTO 34015KT 8SM -RA OVC008 01/00 A2950 RMK AO2 CIG 005V010 SLP993 P0000 60000 T00060000 10006 20000 50002 FZRANO $
PASA 182342Z AUTO 35013KT 9SM -RA OVC008 01/00 A2950 RMK AO2 P0000 FZRANO $
PASA 182256Z AUTO 01008KT 5SM -RA BR OVC012 01/M01 A2951 RMK AO2 UPE32RAB32 SLP995 P0000 T00061006 FZRANO $
PASA 182156Z AUTO 02012KT 5SM UP BR BKN010 OVC018 00/M01 A2951 RMK AO2 RAE10UPB38SNB10E38 SLP994 P0000 T00001011 FZRANO $
PASA 182136Z AUTO 02015KT 8SM -SN SCT006 BKN012 OVC020 00/M01 A2950 RMK AO2 RAE10SNB10 P0000 FZRANO $
PASA 182123Z AUTO 01012KT 1 3/4SM -SN BR BKN006 OVC011 00/M01 A2950 RMK AO2 RAE10SNB10 CIG 004V010 P0000 FZRANO $
PASA 182117Z AUTO 01012KT 2 1/2SM -SN BR SCT006 OVC011 01/M01 A2950 RMK AO2 VIS 1 1/2V3 RAE10SNB10 P0000 FZRANO $
PASA 182056Z AUTO 02009KT 5SM -RA BR BKN007 OVC013 01/M01 A2950 RMK AO2 UPE22RAB22SNB00E12 CIG 005V009 SLP991 P0000 60000 T00061006 53013 FZRANO $
PASA 182024Z AUTO 02013KT 10SM -RA SCT009 BKN014 OVC018 01/M01 A2949 RMK AO2 UPE22RAB22SNB00E12 P0000 FZRANO $
PASA 182017Z AUTO 02011G18KT 9SM UP OVC012 01/M01 A2949 RMK AO2 SNB00E12 P0000 FZRANO $
PASA 182010Z AUTO 02012G19KT 6SM -SN BR BKN008 OVC014 00/M01 A2949 RMK AO2 UPE00SNB00 CIG 007V010 P0000 FZRANO $
PASA 181956Z AUTO 01014G19KT 6SM UP BR BKN010 OVC017 00/M01 A2948 RMK AO2 RAE45UPB45 SLP986 P0000 T00001011 FZRANO $
PASA 181928Z AUTO 01019G23KT 10SM -RA BKN010 OVC018 01/M01 A2947 RMK AO2 CIG 006V014 P0000 FZRANO $
PASA 181856Z AUTO 02012G19KT 8SM -RA BKN008 OVC027 01/M01 A2947 RMK AO2 UPB04E16B47E49RAB49SNE04B16E47 CIG 007V012 SLP981 P0000 T00061006 FZRANO $
PASA 181804Z AUTO 02013KT 3SM UP BR OVC006 01/M01 A2946 RMK AO2 UPB04SNE04 CIG 004V008 P0000 FZRANO $
PASA 181727Z AUTO 01018G23KT 2 1/2SM -SN BR BKN006 OVC012 01/M01 A2946 RMK AO2 UPE23SNB23 CIG 004V009 P0000 FZRANO $
PASA 181656Z AUTO 36013KT 3SM UP BR BKN008 OVC015 01/M01 A2946 RMK AO2 RAE1557UPB55SNB1557E55 CIG 005V011 SLP977 P0000 T00061006 FZRANO $
PASA 181606Z AUTO 01017KT 6SM -SN BR SCT008 BKN013 OVC019 01/M01 A2946 RMK AO2 RAE1557SNB1557 P0000 FZRANO $
PASA 181556Z AUTO 01014KT 10SM -RA BKN010 OVC017 01/M01 A2946 RMK AO2 UPE1457RAB1457 CIG 007V012 SLP977 P0000 T00061006 FZRANO $
PASA 181553Z AUTO 01013G23KT 10SM -RA SCT008 BKN015 OVC020 01/M01 A2946 RMK AO2 UPE1457RAB1457 P0000 FZRANO $
PASA 181514Z AUTO 01015G23KT 9SM -RA BKN008 BKN016 OVC028 01/00 A2946 RMK AO2 UPE1457RAB1457 CIG 006V012 P0000 FZRANO $
PASA 181256Z AUTO 01015G19KT 9SM -RA BKN008 OVC013 01/00 A2945 RMK AO2 SLP976 P0000 T00060000 FZRANO $
PASA 181156Z AUTO 02014KT 10SM -RA OVC008 01/01 A2945 RMK AO2 UPB1057E04SNB10E22 CIG 005V010 SLP976 P0001 60005 70012 T00110006 10011 20006 58001 FZRANO $
PASA 181056Z AUTO 02014G19KT 6SM -RA BR OVC006 01/00 A2946 RMK AO2 RAE21B48UPB21E48 CIG 005V010 SLP978 P0001 T00060000 FZRANO $
PASA 180956Z AUTO 02016G22KT 7SM -RA BKN006 OVC013 01/00 A2946 RMK AO2 UPB32E56 SLP977 P0002 T00060000 FZRANO $
PASA 180756Z AUTO 02015KT 10SM -RA OVC008 01/01 A2945 RMK AO2 SLP974 P0001 T00110006 FZRANO $
PASA 180656Z AUTO 03013KT 10SM -RA BKN006 OVC030 01/00 A2945 RMK AO2 SLP973 P0000 T00060000 FZRANO $
PASA 180556Z AUTO 02011G19KT 10SM -RA BKN006 OVC011 01/00 A2945 RMK AO2 UPB38E45 SLP975 P0000 60004 T00060000 10011 20006 53001 FZRANO $
PASA 180456Z AUTO 02014G21KT 10SM -RA OVC006 01/01 A2945 RMK AO2 UPB0358E11 SLP974 P0001 T00110006 FZRANO $
PASA 180356Z AUTO 03014KT 5SM -RA BR OVC006 01/00 A2945 RMK AO2 SNB39E52 SLP974 P0002 T00060000 FZRANO $
PASA 180056Z AUTO 03014KT 10SM -RA OVC006 01/01 A2945 RMK AO2 SNB35E48 SLP975 P0001 T00110006 FZRANO $
PASA 172356Z AUTO 03015KT 8SM -RA OVC006 02/01 A2946 RMK AO2 UPE19RAB19 SLP977 P0001 60001 T00170006 10017 20011 58007 FZRANO $
PASA 172256Z AUTO 04012KT 10SM UP BKN008 OVC012 02/01 A2947 RMK AO2 RAE18UPB23 CIG 006V010 SLP980 P0000 T00170006 FZRANO $
PASA 172156Z AUTO 03013KT 9SM -RA OVC008 01/01 A2947 RMK AO2 RAB2058UPB27E39 SLP983 P0000 T00110006 FZRANO $
PASA 172137Z AUTO 03014KT 8SM UP BKN008 OVC012 01/00 A2947 RMK AO2 RAB2058E27UPB27 CIG 006V010 P0000 FZRANO $
PASA 172056Z AUTO 04014KT 10SM OVC010 01/00 A2948 RMK AO2 RAE18B40E41UPB18E40 SLP984 P0000 60000 T00110000 58001 FZRANO $
PASA 172049Z AUTO 04015KT 10SM OVC010 01/00 A2948 RMK AO2 RAE18B40E41UPB18E40 CIG 008V013 P0000 FZRANO $
PASA 171956Z AUTO 04013KT 8SM -RA OVC006 01/00 A2948 RMK AO2 RAB49 CIG 005V010 SLP986 P0000 T00110000 FZRANO $
PASA 171944Z AUTO 04013KT 10SM OVC008 01/00 A2948 RMK AO2 CIG 006V010 FZRANO $
PASA 171825Z AUTO 04014KT 10SM OVC010 01/00 A2949 RMK AO2 FZRANO $
PASA 171556Z AUTO 07014KT 10SM -RA OVC007 02/01 A2949 RMK AO2 RAE32B48UPB32E48 SLP988 P0001 T00170006 FZRANO $
PASA 171456Z AUTO 07015KT 10SM -RA OVC007 02/01 A2949 RMK AO2 UPB04E15 SLP987 P0001 60001 T00170011 58010 FZRANO $
PASA 171356Z AUTO 08011KT 10SM -RA OVC007 02/01 A2950 RMK AO2 SLP991 P0000 T00170011 FZRANO $
PASA 171256Z AUTO 09011KT 10SM -RA OVC007 02/01 A2951 RMK AO2 RAB49 SLP995 P0000 T00170011 FZRANO $